sensor_id;sensor_type;location;lat;lon;timestamp;P1;durP1;ratioP1;P2;durP2;ratioP2
38805;SDS011;25635;51.146;17.162;2022-12-18T00:01:23;39.13;;;15.93;;
38805;SDS011;25635;51.146;17.162;2022-12-18T00:04:01;42.17;;;18.07;;
38805;SDS011;25635;51.146;17.162;2022-12-18T00:06:29;39.40;;;17.10;;
38805;SDS011;25635;51.146;17.162;2022-12-18T00:08:58;36.37;;;16.10;;
38805;SDS011;25635;51.146;17.162;2022-12-18T00:11:27;38.50;;;17.77;;
38805;SDS011;25635;51.146;17.162;2022-12-18T00:13:56;39.83;;;16.23;;
38805;SDS011;25635;51.146;17.162;2022-12-18T00:16:25;36.90;;;15.13;;
38805;SDS011;25635;51.146;17.162;2022-12-18T00:18:53;31.50;;;14.67;;
38805;SDS011;25635;51.146;17.162;2022-12-18T00:21:24;34.83;;;13.67;;
38805;SDS011;25635;51.146;17.162;2022-12-18T00:23:50;32.90;;;14.53;;
38805;SDS011;25635;51.146;17.162;2022-12-18T00:26:18;40.07;;;15.80;;
38805;SDS011;25635;51.146;17.162;2022-12-18T00:28:49;38.90;;;16.57;;
38805;SDS011;25635;51.146;17.162;2022-12-18T00:31:17;40.17;;;16.00;;
38805;SDS011;25635;51.146;17.162;2022-12-18T00:33:47;41.03;;;17.80;;
38805;SDS011;25635;51.146;17.162;2022-12-18T00:36:14;33.17;;;13.90;;
38805;SDS011;25635;51.146;17.162;2022-12-18T00:38:44;36.63;;;16.47;;
38805;SDS011;25635;51.146;17.162;2022-12-18T00:41:12;35.20;;;16.27;;
38805;SDS011;25635;51.146;17.162;2022-12-18T00:43:45;37.33;;;17.03;;
38805;SDS011;25635;51.146;17.162;2022-12-18T00:46:11;38.67;;;16.00;;
38805;SDS011;25635;51.146;17.162;2022-12-18T00:48:37;33.57;;;15.77;;
38805;SDS011;25635;51.146;17.162;2022-12-18T00:51:04;46.70;;;18.70;;
38805;SDS011;25635;51.146;17.162;2022-12-18T00:53:30;39.93;;;15.80;;
38805;SDS011;25635;51.146;17.162;2022-12-18T00:55:56;39.17;;;17.17;;
38805;SDS011;25635;51.146;17.162;2022-12-18T00:58:23;34.57;;;15.67;;
38805;SDS011;25635;51.146;17.162;2022-12-18T01:00:49;40.60;;;15.70;;
38805;SDS011;25635;51.146;17.162;2022-12-18T01:03:15;41.33;;;16.97;;
38805;SDS011;25635;51.146;17.162;2022-12-18T01:05:41;45.23;;;17.67;;
38805;SDS011;25635;51.146;17.162;2022-12-18T01:08:08;48.13;;;19.63;;
38805;SDS011;25635;51.146;17.162;2022-12-18T01:10:34;46.33;;;18.47;;
38805;SDS011;25635;51.146;17.162;2022-12-18T01:13:00;40.40;;;17.27;;
38805;SDS011;25635;51.146;17.162;2022-12-18T01:15:26;42.17;;;16.27;;
38805;SDS011;25635;51.146;17.162;2022-12-18T01:17:52;41.50;;;17.27;;
38805;SDS011;25635;51.146;17.162;2022-12-18T01:20:19;39.87;;;16.70;;
38805;SDS011;25635;51.146;17.162;2022-12-18T01:22:45;37.03;;;15.80;;
38805;SDS011;25635;51.146;17.162;2022-12-18T01:25:11;35.93;;;15.73;;
38805;SDS011;25635;51.146;17.162;2022-12-18T01:27:38;36.43;;;14.47;;
38805;SDS011;25635;51.146;17.162;2022-12-18T01:30:04;38.20;;;16.13;;
38805;SDS011;25635;51.146;17.162;2022-12-18T01:32:31;34.00;;;14.07;;
38805;SDS011;25635;51.146;17.162;2022-12-18T01:34:58;42.27;;;16.50;;
38805;SDS011;25635;51.146;17.162;2022-12-18T01:37:24;31.27;;;13.73;;
38805;SDS011;25635;51.146;17.162;2022-12-18T01:39:51;41.10;;;14.93;;
38805;SDS011;25635;51.146;17.162;2022-12-18T01:42:20;34.97;;;15.60;;
38805;SDS011;25635;51.146;17.162;2022-12-18T01:47:50;39.87;;;16.13;;
38805;SDS011;25635;51.146;17.162;2022-12-18T01:50:39;37.00;;;16.27;;
38805;SDS011;25635;51.146;17.162;2022-12-18T01:53:11;35.93;;;14.67;;
38805;SDS011;25635;51.146;17.162;2022-12-18T01:55:43;34.93;;;15.40;;
38805;SDS011;25635;51.146;17.162;2022-12-18T01:58:16;39.03;;;15.73;;
38805;SDS011;25635;51.146;17.162;2022-12-18T02:00:44;44.90;;;17.43;;
38805;SDS011;25635;51.146;17.162;2022-12-18T02:03:10;35.87;;;16.20;;
38805;SDS011;25635;51.146;17.162;2022-12-18T02:08:30;42.53;;;17.70;;
38805;SDS011;25635;51.146;17.162;2022-12-18T02:11:10;43.00;;;18.33;;
38805;SDS011;25635;51.146;17.162;2022-12-18T02:13:59;44.70;;;17.40;;
38805;SDS011;25635;51.146;17.162;2022-12-18T02:22:29;45.37;;;18.23;;
38805;SDS011;25635;51.146;17.162;2022-12-18T02:28:11;37.90;;;16.43;;
38805;SDS011;25635;51.146;17.162;2022-12-18T02:30:41;36.43;;;15.73;;
38805;SDS011;25635;51.146;17.162;2022-12-18T02:33:09;40.57;;;17.13;;
38805;SDS011;25635;51.146;17.162;2022-12-18T02:35:37;36.90;;;16.37;;
38805;SDS011;25635;51.146;17.162;2022-12-18T02:38:06;43.47;;;17.00;;
38805;SDS011;25635;51.146;17.162;2022-12-18T02:40:32;37.47;;;16.33;;
38805;SDS011;25635;51.146;17.162;2022-12-18T02:43:16;39.07;;;16.97;;
38805;SDS011;25635;51.146;17.162;2022-12-18T02:45:54;38.50;;;16.10;;
38805;SDS011;25635;51.146;17.162;2022-12-18T02:48:31;33.07;;;15.03;;
38805;SDS011;25635;51.146;17.162;2022-12-18T02:51:03;38.75;;;16.40;;
38805;SDS011;25635;51.146;17.162;2022-12-18T02:53:55;34.27;;;15.47;;
38805;SDS011;25635;51.146;17.162;2022-12-18T02:56:35;37.83;;;16.40;;
38805;SDS011;25635;51.146;17.162;2022-12-18T02:59:06;40.47;;;15.57;;
38805;SDS011;25635;51.146;17.162;2022-12-18T03:04:29;33.48;;;14.18;;
38805;SDS011;25635;51.146;17.162;2022-12-18T03:07:18;36.00;;;15.30;;
38805;SDS011;25635;51.146;17.162;2022-12-18T03:09:51;35.80;;;15.20;;
38805;SDS011;25635;51.146;17.162;2022-12-18T03:12:21;35.80;;;15.00;;
38805;SDS011;25635;51.146;17.162;2022-12-18T03:17:32;35.03;;;14.60;;
38805;SDS011;25635;51.146;17.162;2022-12-18T03:20:04;33.80;;;14.60;;
38805;SDS011;25635;51.146;17.162;2022-12-18T03:22:35;33.90;;;13.83;;
38805;SDS011;25635;51.146;17.162;2022-12-18T03:25:06;31.60;;;14.40;;
38805;SDS011;25635;51.146;17.162;2022-12-18T03:27:40;35.20;;;14.80;;
38805;SDS011;25635;51.146;17.162;2022-12-18T03:30:11;34.47;;;13.93;;
38805;SDS011;25635;51.146;17.162;2022-12-18T03:33:00;33.50;;;14.00;;
38805;SDS011;25635;51.146;17.162;2022-12-18T03:35:19;33.23;;;14.20;;
38805;SDS011;25635;51.146;17.162;2022-12-18T03:37:49;32.03;;;12.87;;
38805;SDS011;25635;51.146;17.162;2022-12-18T03:40:15;29.30;;;13.90;;
38805;SDS011;25635;51.146;17.162;2022-12-18T03:45:23;35.93;;;15.23;;
38805;SDS011;25635;51.146;17.162;2022-12-18T03:50:41;34.80;;;15.00;;
38805;SDS011;25635;51.146;17.162;2022-12-18T03:56:11;31.17;;;14.13;;
38805;SDS011;25635;51.146;17.162;2022-12-18T03:58:41;33.53;;;13.80;;
38805;SDS011;25635;51.146;17.162;2022-12-18T04:01:10;33.67;;;15.10;;
38805;SDS011;25635;51.146;17.162;2022-12-18T04:03:39;37.03;;;15.63;;
38805;SDS011;25635;51.146;17.162;2022-12-18T04:06:07;35.00;;;16.50;;
38805;SDS011;25635;51.146;17.162;2022-12-18T04:08:35;35.60;;;16.23;;
38805;SDS011;25635;51.146;17.162;2022-12-18T04:11:01;37.80;;;15.43;;
38805;SDS011;25635;51.146;17.162;2022-12-18T04:13:30;33.77;;;14.37;;
38805;SDS011;25635;51.146;17.162;2022-12-18T04:16:03;37.53;;;15.83;;
38805;SDS011;25635;51.146;17.162;2022-12-18T04:18:30;35.60;;;14.67;;
38805;SDS011;25635;51.146;17.162;2022-12-18T04:20:56;32.40;;;13.43;;
38805;SDS011;25635;51.146;17.162;2022-12-18T04:23:22;34.33;;;16.03;;
38805;SDS011;25635;51.146;17.162;2022-12-18T04:25:49;35.27;;;15.37;;
38805;SDS011;25635;51.146;17.162;2022-12-18T04:28:15;31.60;;;14.60;;
38805;SDS011;25635;51.146;17.162;2022-12-18T04:30:41;35.70;;;14.93;;
38805;SDS011;25635;51.146;17.162;2022-12-18T04:33:10;37.87;;;16.30;;
38805;SDS011;25635;51.146;17.162;2022-12-18T04:35:39;39.87;;;15.83;;
38805;SDS011;25635;51.146;17.162;2022-12-18T04:38:07;35.60;;;15.27;;
38805;SDS011;25635;51.146;17.162;2022-12-18T04:40:35;36.53;;;15.77;;
38805;SDS011;25635;51.146;17.162;2022-12-18T04:43:03;31.53;;;14.00;;
38805;SDS011;25635;51.146;17.162;2022-12-18T04:45:29;31.77;;;14.60;;
38805;SDS011;25635;51.146;17.162;2022-12-18T04:47:57;32.33;;;14.57;;
38805;SDS011;25635;51.146;17.162;2022-12-18T04:50:24;29.87;;;13.77;;
38805;SDS011;25635;51.146;17.162;2022-12-18T04:52:50;31.00;;;13.93;;
38805;SDS011;25635;51.146;17.162;2022-12-18T04:55:17;31.90;;;14.50;;
38805;SDS011;25635;51.146;17.162;2022-12-18T04:57:43;31.03;;;14.53;;
38805;SDS011;25635;51.146;17.162;2022-12-18T05:00:09;35.40;;;15.73;;
38805;SDS011;25635;51.146;17.162;2022-12-18T05:02:37;31.93;;;15.10;;
38805;SDS011;25635;51.146;17.162;2022-12-18T05:05:03;34.37;;;14.63;;
38805;SDS011;25635;51.146;17.162;2022-12-18T05:07:30;29.93;;;13.17;;
38805;SDS011;25635;51.146;17.162;2022-12-18T05:09:56;31.37;;;13.07;;
38805;SDS011;25635;51.146;17.162;2022-12-18T05:12:23;34.37;;;14.20;;
38805;SDS011;25635;51.146;17.162;2022-12-18T05:14:49;33.43;;;14.43;;
38805;SDS011;25635;51.146;17.162;2022-12-18T05:17:15;30.67;;;14.23;;
38805;SDS011;25635;51.146;17.162;2022-12-18T05:19:41;28.47;;;13.67;;
38805;SDS011;25635;51.146;17.162;2022-12-18T05:22:08;34.20;;;14.53;;
38805;SDS011;25635;51.146;17.162;2022-12-18T05:24:34;37.77;;;15.33;;
38805;SDS011;25635;51.146;17.162;2022-12-18T05:27:01;35.00;;;16.37;;
38805;SDS011;25635;51.146;17.162;2022-12-18T05:29:27;36.60;;;15.07;;
38805;SDS011;25635;51.146;17.162;2022-12-18T05:31:53;29.50;;;13.60;;
38805;SDS011;25635;51.146;17.162;2022-12-18T05:34:19;31.73;;;13.30;;
38805;SDS011;25635;51.146;17.162;2022-12-18T05:36:46;35.00;;;15.07;;
38805;SDS011;25635;51.146;17.162;2022-12-18T05:39:12;34.70;;;15.13;;
38805;SDS011;25635;51.146;17.162;2022-12-18T05:41:38;32.23;;;14.23;;
38805;SDS011;25635;51.146;17.162;2022-12-18T05:44:04;31.77;;;14.87;;
38805;SDS011;25635;51.146;17.162;2022-12-18T05:46:30;33.17;;;14.97;;
38805;SDS011;25635;51.146;17.162;2022-12-18T05:48:58;31.93;;;14.73;;
38805;SDS011;25635;51.146;17.162;2022-12-18T05:51:26;35.73;;;15.07;;
38805;SDS011;25635;51.146;17.162;2022-12-18T05:53:52;35.53;;;15.23;;
38805;SDS011;25635;51.146;17.162;2022-12-18T05:56:20;34.00;;;14.80;;
38805;SDS011;25635;51.146;17.162;2022-12-18T05:58:50;34.73;;;15.77;;
38805;SDS011;25635;51.146;17.162;2022-12-18T06:01:19;33.60;;;16.80;;
38805;SDS011;25635;51.146;17.162;2022-12-18T06:03:49;36.03;;;15.37;;
38805;SDS011;25635;51.146;17.162;2022-12-18T06:06:17;31.63;;;14.90;;
38805;SDS011;25635;51.146;17.162;2022-12-18T06:08:48;33.10;;;14.13;;
38805;SDS011;25635;51.146;17.162;2022-12-18T06:11:19;34.10;;;14.30;;
38805;SDS011;25635;51.146;17.162;2022-12-18T06:13:52;32.27;;;14.73;;
38805;SDS011;25635;51.146;17.162;2022-12-18T06:16:20;35.60;;;14.40;;
38805;SDS011;25635;51.146;17.162;2022-12-18T06:18:46;39.83;;;17.27;;
38805;SDS011;25635;51.146;17.162;2022-12-18T06:21:13;37.40;;;17.10;;
38805;SDS011;25635;51.146;17.162;2022-12-18T06:23:39;33.83;;;15.63;;
38805;SDS011;25635;51.146;17.162;2022-12-18T06:26:06;34.90;;;16.20;;
38805;SDS011;25635;51.146;17.162;2022-12-18T06:28:34;33.57;;;15.60;;
38805;SDS011;25635;51.146;17.162;2022-12-18T06:31:02;34.40;;;15.43;;
38805;SDS011;25635;51.146;17.162;2022-12-18T06:33:29;37.07;;;16.30;;
38805;SDS011;25635;51.146;17.162;2022-12-18T06:36:04;37.63;;;17.17;;
38805;SDS011;25635;51.146;17.162;2022-12-18T06:38:31;35.30;;;16.33;;
38805;SDS011;25635;51.146;17.162;2022-12-18T06:40:59;38.70;;;17.97;;
38805;SDS011;25635;51.146;17.162;2022-12-18T06:43:25;43.23;;;20.53;;
38805;SDS011;25635;51.146;17.162;2022-12-18T06:45:57;37.47;;;18.50;;
38805;SDS011;25635;51.146;17.162;2022-12-18T06:48:26;39.40;;;17.77;;
38805;SDS011;25635;51.146;17.162;2022-12-18T06:50:52;43.70;;;18.77;;
38805;SDS011;25635;51.146;17.162;2022-12-18T06:53:18;33.70;;;14.97;;
38805;SDS011;25635;51.146;17.162;2022-12-18T06:55:45;41.37;;;20.00;;
38805;SDS011;25635;51.146;17.162;2022-12-18T06:58:11;39.63;;;17.80;;
38805;SDS011;25635;51.146;17.162;2022-12-18T07:00:37;41.40;;;19.50;;
38805;SDS011;25635;51.146;17.162;2022-12-18T07:03:03;41.90;;;18.70;;
38805;SDS011;25635;51.146;17.162;2022-12-18T07:05:29;41.17;;;19.70;;
38805;SDS011;25635;51.146;17.162;2022-12-18T07:07:55;44.13;;;20.80;;
38805;SDS011;25635;51.146;17.162;2022-12-18T07:10:21;48.13;;;21.37;;
38805;SDS011;25635;51.146;17.162;2022-12-18T07:12:47;46.63;;;19.70;;
38805;SDS011;25635;51.146;17.162;2022-12-18T07:15:13;47.33;;;20.63;;
38805;SDS011;25635;51.146;17.162;2022-12-18T07:17:40;43.03;;;20.40;;
38805;SDS011;25635;51.146;17.162;2022-12-18T07:20:06;47.20;;;20.50;;
38805;SDS011;25635;51.146;17.162;2022-12-18T07:22:34;52.00;;;22.90;;
38805;SDS011;25635;51.146;17.162;2022-12-18T07:25:01;41.87;;;19.10;;
38805;SDS011;25635;51.146;17.162;2022-12-18T07:27:27;41.87;;;18.30;;
38805;SDS011;25635;51.146;17.162;2022-12-18T07:29:53;47.47;;;22.57;;
38805;SDS011;25635;51.146;17.162;2022-12-18T07:32:20;48.10;;;20.97;;
38805;SDS011;25635;51.146;17.162;2022-12-18T07:34:46;45.13;;;20.50;;
38805;SDS011;25635;51.146;17.162;2022-12-18T07:37:12;43.90;;;20.60;;
38805;SDS011;25635;51.146;17.162;2022-12-18T07:39:38;44.83;;;21.40;;
38805;SDS011;25635;51.146;17.162;2022-12-18T07:42:04;45.17;;;21.13;;
38805;SDS011;25635;51.146;17.162;2022-12-18T07:44:49;48.57;;;25.17;;
38805;SDS011;25635;51.146;17.162;2022-12-18T07:47:15;52.67;;;24.83;;
38805;SDS011;25635;51.146;17.162;2022-12-18T07:49:41;46.13;;;21.97;;
38805;SDS011;25635;51.146;17.162;2022-12-18T07:52:07;45.13;;;19.90;;
38805;SDS011;25635;51.146;17.162;2022-12-18T07:54:34;47.93;;;21.33;;
38805;SDS011;25635;51.146;17.162;2022-12-18T07:57:00;47.63;;;22.33;;
38805;SDS011;25635;51.146;17.162;2022-12-18T07:59:26;49.43;;;22.30;;
38805;SDS011;25635;51.146;17.162;2022-12-18T08:01:53;53.07;;;24.40;;
38805;SDS011;25635;51.146;17.162;2022-12-18T08:04:19;51.60;;;23.60;;
38805;SDS011;25635;51.146;17.162;2022-12-18T08:06:45;48.33;;;23.63;;
38805;SDS011;25635;51.146;17.162;2022-12-18T08:09:11;50.73;;;24.33;;
38805;SDS011;25635;51.146;17.162;2022-12-18T08:11:38;62.83;;;28.17;;
38805;SDS011;25635;51.146;17.162;2022-12-18T08:14:04;58.23;;;25.17;;
38805;SDS011;25635;51.146;17.162;2022-12-18T08:16:30;54.37;;;24.87;;
38805;SDS011;25635;51.146;17.162;2022-12-18T08:18:56;47.00;;;22.33;;
38805;SDS011;25635;51.146;17.162;2022-12-18T08:21:24;49.27;;;22.47;;
38805;SDS011;25635;51.146;17.162;2022-12-18T08:23:57;47.77;;;21.33;;
38805;SDS011;25635;51.146;17.162;2022-12-18T08:26:26;49.13;;;21.83;;
38805;SDS011;25635;51.146;17.162;2022-12-18T08:28:55;46.40;;;22.00;;
38805;SDS011;25635;51.146;17.162;2022-12-18T08:31:23;48.43;;;22.37;;
38805;SDS011;25635;51.146;17.162;2022-12-18T08:33:51;46.63;;;22.83;;
38805;SDS011;25635;51.146;17.162;2022-12-18T08:36:19;51.33;;;25.50;;
38805;SDS011;25635;51.146;17.162;2022-12-18T08:38:46;51.47;;;23.47;;
38805;SDS011;25635;51.146;17.162;2022-12-18T08:41:14;52.23;;;24.43;;
38805;SDS011;25635;51.146;17.162;2022-12-18T08:43:42;50.90;;;24.73;;
38805;SDS011;25635;51.146;17.162;2022-12-18T08:46:30;51.73;;;24.43;;
38805;SDS011;25635;51.146;17.162;2022-12-18T08:49:01;45.77;;;21.70;;
38805;SDS011;25635;51.146;17.162;2022-12-18T08:51:29;46.90;;;21.80;;
38805;SDS011;25635;51.146;17.162;2022-12-18T08:53:55;47.47;;;22.17;;
38805;SDS011;25635;51.146;17.162;2022-12-18T08:56:21;37.00;;;19.70;;
38805;SDS011;25635;51.146;17.162;2022-12-18T08:58:50;45.60;;;20.47;;
38805;SDS011;25635;51.146;17.162;2022-12-18T09:01:19;38.53;;;19.10;;
38805;SDS011;25635;51.146;17.162;2022-12-18T09:03:47;41.80;;;20.03;;
38805;SDS011;25635;51.146;17.162;2022-12-18T09:06:18;44.43;;;20.07;;
38805;SDS011;25635;51.146;17.162;2022-12-18T09:08:46;40.97;;;20.57;;
38805;SDS011;25635;51.146;17.162;2022-12-18T09:11:13;38.60;;;18.53;;
38805;SDS011;25635;51.146;17.162;2022-12-18T09:13:46;40.63;;;18.57;;
38805;SDS011;25635;51.146;17.162;2022-12-18T09:16:12;49.53;;;22.97;;
38805;SDS011;25635;51.146;17.162;2022-12-18T09:18:38;43.33;;;20.10;;
38805;SDS011;25635;51.146;17.162;2022-12-18T09:21:09;46.40;;;20.63;;
38805;SDS011;25635;51.146;17.162;2022-12-18T09:23:37;39.27;;;19.00;;
38805;SDS011;25635;51.146;17.162;2022-12-18T09:26:04;38.33;;;19.50;;
38805;SDS011;25635;51.146;17.162;2022-12-18T09:28:30;44.33;;;20.70;;
38805;SDS011;25635;51.146;17.162;2022-12-18T09:30:56;45.87;;;22.40;;
38805;SDS011;25635;51.146;17.162;2022-12-18T09:33:22;60.37;;;25.20;;
38805;SDS011;25635;51.146;17.162;2022-12-18T09:35:49;44.23;;;21.33;;
38805;SDS011;25635;51.146;17.162;2022-12-18T09:38:18;40.10;;;19.03;;
38805;SDS011;25635;51.146;17.162;2022-12-18T09:40:50;41.67;;;19.60;;
38805;SDS011;25635;51.146;17.162;2022-12-18T09:43:26;37.83;;;19.43;;
38805;SDS011;25635;51.146;17.162;2022-12-18T09:46:06;43.57;;;19.77;;
38805;SDS011;25635;51.146;17.162;2022-12-18T09:48:38;39.27;;;18.97;;
38805;SDS011;25635;51.146;17.162;2022-12-18T09:53:55;39.80;;;19.67;;
38805;SDS011;25635;51.146;17.162;2022-12-18T09:56:28;43.23;;;21.00;;
38805;SDS011;25635;51.146;17.162;2022-12-18T09:58:58;38.23;;;19.90;;
38805;SDS011;25635;51.146;17.162;2022-12-18T10:01:28;43.10;;;21.30;;
38805;SDS011;25635;51.146;17.162;2022-12-18T10:03:55;39.30;;;19.70;;
38805;SDS011;25635;51.146;17.162;2022-12-18T10:11:43;60.57;;;29.13;;
38805;SDS011;25635;51.146;17.162;2022-12-18T10:14:39;40.47;;;20.57;;
38805;SDS011;25635;51.146;17.162;2022-12-18T10:20:24;38.47;;;18.33;;
38805;SDS011;25635;51.146;17.162;2022-12-18T10:26:01;41.60;;;20.17;;
38805;SDS011;25635;51.146;17.162;2022-12-18T10:28:32;39.80;;;20.40;;
38805;SDS011;25635;51.146;17.162;2022-12-18T10:31:02;43.90;;;22.03;;
38805;SDS011;25635;51.146;17.162;2022-12-18T10:33:33;45.07;;;21.93;;
38805;SDS011;25635;51.146;17.162;2022-12-18T10:36:00;38.53;;;19.77;;
38805;SDS011;25635;51.146;17.162;2022-12-18T10:38:28;43.97;;;21.20;;
38805;SDS011;25635;51.146;17.162;2022-12-18T10:41:04;39.73;;;20.33;;
38805;SDS011;25635;51.146;17.162;2022-12-18T10:43:48;38.00;;;18.63;;
38805;SDS011;25635;51.146;17.162;2022-12-18T10:46:19;62.97;;;34.03;;
38805;SDS011;25635;51.146;17.162;2022-12-18T10:51:21;41.60;;;21.03;;
38805;SDS011;25635;51.146;17.162;2022-12-18T10:53:55;39.67;;;19.83;;
38805;SDS011;25635;51.146;17.162;2022-12-18T10:56:31;39.70;;;19.13;;
38805;SDS011;25635;51.146;17.162;2022-12-18T11:01:53;41.30;;;20.73;;
38805;SDS011;25635;51.146;17.162;2022-12-18T11:04:23;42.47;;;19.60;;
38805;SDS011;25635;51.146;17.162;2022-12-18T11:07:05;43.30;;;20.30;;
38805;SDS011;25635;51.146;17.162;2022-12-18T11:09:35;42.53;;;21.50;;
38805;SDS011;25635;51.146;17.162;2022-12-18T11:12:02;40.83;;;21.27;;
38805;SDS011;25635;51.146;17.162;2022-12-18T11:14:47;41.37;;;19.97;;
38805;SDS011;25635;51.146;17.162;2022-12-18T11:17:23;42.20;;;20.10;;
38805;SDS011;25635;51.146;17.162;2022-12-18T11:19:59;43.97;;;21.17;;
38805;SDS011;25635;51.146;17.162;2022-12-18T11:22:30;46.03;;;21.83;;
38805;SDS011;25635;51.146;17.162;2022-12-18T11:25:00;47.47;;;21.60;;
38805;SDS011;25635;51.146;17.162;2022-12-18T11:27:39;44.00;;;20.27;;
38805;SDS011;25635;51.146;17.162;2022-12-18T11:33:06;43.20;;;21.00;;
38805;SDS011;25635;51.146;17.162;2022-12-18T11:35:44;42.00;;;20.77;;
38805;SDS011;25635;51.146;17.162;2022-12-18T11:44:38;42.07;;;19.93;;
38805;SDS011;25635;51.146;17.162;2022-12-18T11:47:21;44.40;;;20.85;;
38805;SDS011;25635;51.146;17.162;2022-12-18T11:49:56;48.03;;;22.37;;
38805;SDS011;25635;51.146;17.162;2022-12-18T11:52:28;54.27;;;24.87;;
38805;SDS011;25635;51.146;17.162;2022-12-18T11:55:01;51.17;;;24.40;;
38805;SDS011;25635;51.146;17.162;2022-12-18T12:00:25;51.60;;;23.90;;
38805;SDS011;25635;51.146;17.162;2022-12-18T12:06:22;42.93;;;20.63;;
38805;SDS011;25635;51.146;17.162;2022-12-18T12:14:36;55.37;;;25.03;;
38805;SDS011;25635;51.146;17.162;2022-12-18T12:20:31;55.50;;;26.03;;
38805;SDS011;25635;51.146;17.162;2022-12-18T12:26:38;49.93;;;22.77;;
38805;SDS011;25635;51.146;17.162;2022-12-18T12:29:35;56.13;;;26.03;;
38805;SDS011;25635;51.146;17.162;2022-12-18T12:32:07;52.80;;;23.10;;
38805;SDS011;25635;51.146;17.162;2022-12-18T12:34:57;48.87;;;23.40;;
38805;SDS011;25635;51.146;17.162;2022-12-18T12:37:36;49.53;;;22.70;;
38805;SDS011;25635;51.146;17.162;2022-12-18T12:40:05;47.37;;;22.33;;
38805;SDS011;25635;51.146;17.162;2022-12-18T12:42:33;46.33;;;21.50;;
38805;SDS011;25635;51.146;17.162;2022-12-18T12:45:34;48.50;;;23.55;;
38805;SDS011;25635;51.146;17.162;2022-12-18T12:48:00;47.83;;;22.00;;
38805;SDS011;25635;51.146;17.162;2022-12-18T12:50:28;43.93;;;20.40;;
38805;SDS011;25635;51.146;17.162;2022-12-18T12:52:59;44.03;;;19.77;;
38805;SDS011;25635;51.146;17.162;2022-12-18T12:55:30;43.87;;;20.23;;
38805;SDS011;25635;51.146;17.162;2022-12-18T12:58:15;50.07;;;23.87;;
38805;SDS011;25635;51.146;17.162;2022-12-18T13:01:19;46.80;;;22.83;;
38805;SDS011;25635;51.146;17.162;2022-12-18T13:04:12;46.13;;;22.40;;
38805;SDS011;25635;51.146;17.162;2022-12-18T13:06:46;48.27;;;23.17;;
38805;SDS011;25635;51.146;17.162;2022-12-18T13:10:11;47.70;;;22.30;;
38805;SDS011;25635;51.146;17.162;2022-12-18T13:12:32;49.87;;;21.83;;
38805;SDS011;25635;51.146;17.162;2022-12-18T13:15:20;45.57;;;21.17;;
38805;SDS011;25635;51.146;17.162;2022-12-18T13:23:30;59.30;;;25.70;;
38805;SDS011;25635;51.146;17.162;2022-12-18T13:28:53;50.03;;;22.23;;
38805;SDS011;25635;51.146;17.162;2022-12-18T13:34:25;45.97;;;20.97;;
38805;SDS011;25635;51.146;17.162;2022-12-18T13:37:38;51.13;;;24.37;;
38805;SDS011;25635;51.146;17.162;2022-12-18T13:40:05;50.83;;;22.00;;
38805;SDS011;25635;51.146;17.162;2022-12-18T13:42:37;40.47;;;18.40;;
38805;SDS011;25635;51.146;17.162;2022-12-18T13:45:42;46.07;;;22.00;;
38805;SDS011;25635;51.146;17.162;2022-12-18T13:48:16;49.20;;;21.67;;
38805;SDS011;25635;51.146;17.162;2022-12-18T13:50:53;50.60;;;22.23;;
38805;SDS011;25635;51.146;17.162;2022-12-18T13:56:21;49.60;;;22.87;;
38805;SDS011;25635;51.146;17.162;2022-12-18T13:59:09;48.90;;;22.90;;
38805;SDS011;25635;51.146;17.162;2022-12-18T14:01:42;48.60;;;22.37;;
38805;SDS011;25635;51.146;17.162;2022-12-18T14:04:27;49.97;;;22.53;;
38805;SDS011;25635;51.146;17.162;2022-12-18T14:07:06;55.33;;;24.70;;
38805;SDS011;25635;51.146;17.162;2022-12-18T14:09:43;55.70;;;24.77;;
38805;SDS011;25635;51.146;17.162;2022-12-18T14:12:21;56.53;;;25.63;;
38805;SDS011;25635;51.146;17.162;2022-12-18T14:15:16;57.37;;;26.47;;
38805;SDS011;25635;51.146;17.162;2022-12-18T14:17:40;56.23;;;25.67;;
38805;SDS011;25635;51.146;17.162;2022-12-18T14:20:12;57.63;;;27.20;;
38805;SDS011;25635;51.146;17.162;2022-12-18T14:22:45;56.03;;;25.67;;
38805;SDS011;25635;51.146;17.162;2022-12-18T14:25:24;62.50;;;28.37;;
38805;SDS011;25635;51.146;17.162;2022-12-18T14:28:12;83.97;;;35.73;;
38805;SDS011;25635;51.146;17.162;2022-12-18T14:30:41;81.90;;;33.47;;
38805;SDS011;25635;51.146;17.162;2022-12-18T14:33:10;71.90;;;33.07;;
38805;SDS011;25635;51.146;17.162;2022-12-18T14:36:03;75.27;;;32.80;;
38805;SDS011;25635;51.146;17.162;2022-12-18T14:38:32;73.00;;;31.63;;
38805;SDS011;25635;51.146;17.162;2022-12-18T14:41:03;75.63;;;31.87;;
38805;SDS011;25635;51.146;17.162;2022-12-18T14:43:33;73.33;;;31.57;;
38805;SDS011;25635;51.146;17.162;2022-12-18T14:46:02;75.93;;;33.23;;
38805;SDS011;25635;51.146;17.162;2022-12-18T14:48:35;72.07;;;31.60;;
38805;SDS011;25635;51.146;17.162;2022-12-18T14:51:17;79.30;;;32.30;;
38805;SDS011;25635;51.146;17.162;2022-12-18T14:53:48;73.87;;;33.53;;
38805;SDS011;25635;51.146;17.162;2022-12-18T14:56:21;81.90;;;33.50;;
38805;SDS011;25635;51.146;17.162;2022-12-18T14:58:57;80.60;;;35.80;;
38805;SDS011;25635;51.146;17.162;2022-12-18T15:01:37;74.93;;;34.70;;
38805;SDS011;25635;51.146;17.162;2022-12-18T15:04:23;76.67;;;33.50;;
38805;SDS011;25635;51.146;17.162;2022-12-18T15:07:04;68.43;;;30.57;;
38805;SDS011;25635;51.146;17.162;2022-12-18T15:10:31;73.77;;;31.27;;
38805;SDS011;25635;51.146;17.162;2022-12-18T15:12:33;73.97;;;30.07;;
38805;SDS011;25635;51.146;17.162;2022-12-18T15:15:03;66.47;;;29.57;;
38805;SDS011;25635;51.146;17.162;2022-12-18T15:17:30;63.30;;;29.13;;
38805;SDS011;25635;51.146;17.162;2022-12-18T15:20:01;61.77;;;28.07;;
38805;SDS011;25635;51.146;17.162;2022-12-18T15:22:35;69.30;;;30.43;;
38805;SDS011;25635;51.146;17.162;2022-12-18T15:25:03;72.40;;;30.93;;
38805;SDS011;25635;51.146;17.162;2022-12-18T15:27:35;64.07;;;28.97;;
38805;SDS011;25635;51.146;17.162;2022-12-18T15:32:38;70.20;;;31.40;;
38805;SDS011;25635;51.146;17.162;2022-12-18T15:37:43;56.17;;;25.13;;
38805;SDS011;25635;51.146;17.162;2022-12-18T15:40:17;57.00;;;26.87;;
38805;SDS011;25635;51.146;17.162;2022-12-18T15:42:51;55.80;;;25.40;;
38805;SDS011;25635;51.146;17.162;2022-12-18T15:45:37;60.57;;;26.17;;
38805;SDS011;25635;51.146;17.162;2022-12-18T15:48:16;56.87;;;24.73;;
38805;SDS011;25635;51.146;17.162;2022-12-18T15:50:48;41.40;;;19.67;;
38805;SDS011;25635;51.146;17.162;2022-12-18T15:53:16;57.80;;;26.20;;
38805;SDS011;25635;51.146;17.162;2022-12-18T15:55:43;52.07;;;23.73;;
38805;SDS011;25635;51.146;17.162;2022-12-18T15:58:28;55.20;;;24.13;;
38805;SDS011;25635;51.146;17.162;2022-12-18T16:00:54;59.17;;;26.67;;
38805;SDS011;25635;51.146;17.162;2022-12-18T16:03:23;42.93;;;19.30;;
38805;SDS011;25635;51.146;17.162;2022-12-18T16:05:50;66.30;;;27.17;;
38805;SDS011;25635;51.146;17.162;2022-12-18T16:08:16;49.27;;;22.60;;